Time;durP1;ratioP1;P1;durP2;ratioP2;P2;SDS_P1;SDS_P2;PMS_P1;PMS_P2;Temp;Humidity;BMP_temperature;BMP_pressure;BME280_temperature;BME280_humidity;BME280_pressure;Samples;Min_cycle;Max_cycle;Signal;HPM_P1;HPM_P2
2022/12/16 00:02:22;;;;;;;35.08;21.00;;;21.90;37.60;;;;;;6152782;28;83241;-65
2022/12/16 00:05:23;;;;;;;30.65;19.85;;;21.80;37.50;;;;;;6149928;28;84275;-66
2022/12/16 00:08:23;;;;;;;32.45;21.63;;;21.90;37.60;;;;;;6147433;28;83703;-65
2022/12/16 00:11:24;;;;;;;30.77;19.92;;;21.80;38.20;;;;;;6147587;28;83703;-65
2022/12/16 00:14:26;;;;;;;33.08;20.95;;;21.80;37.60;;;;;;6148249;28;83316;-65
2022/12/16 00:17:26;;;;;;;33.95;20.92;;;21.80;37.60;;;;;;6147715;28;83645;-66
2022/12/16 00:20:27;;;;;;;30.60;20.92;;;21.80;37.50;;;;;;6151588;28;83522;-61
2022/12/16 00:23:27;;;;;;;30.42;19.73;;;21.80;37.50;;;;;;6149872;28;84253;-60
2022/12/16 00:26:30;;;;;;;31.60;21.17;;;21.80;37.40;;;;;;6150164;28;86727;-60
2022/12/16 00:29:30;;;;;;;31.52;20.05;;;21.80;37.50;;;;;;6132758;28;85376;-60
2022/12/16 00:32:31;;;;;;;32.30;20.67;;;21.80;37.60;;;;;;6151669;28;84063;-60
2022/12/16 00:35:31;;;;;;;33.40;21.10;;;21.80;37.40;;;;;;6133998;28;83565;-60
2022/12/16 00:38:32;;;;;;;31.17;20.38;;;21.80;37.30;;;;;;6139610;28;83052;-68
2022/12/16 00:41:32;;;;;;;35.05;20.88;;;21.80;37.40;;;;;;6127539;28;84787;-67
2022/12/16 00:44:33;;;;;;;31.42;20.80;;;21.70;38.10;;;;;;6127995;28;83340;-66
2022/12/16 00:47:34;;;;;;;31.38;20.15;;;21.70;37.40;;;;;;6128789;28;83538;-67
2022/12/16 00:50:34;;;;;;;31.30;19.48;;;21.70;37.50;;;;;;6130312;28;83237;-67
2022/12/16 00:53:35;;;;;;;31.27;20.80;;;21.70;37.70;;;;;;6127611;28;84166;-65
2022/12/16 00:56:35;;;;;;;35.22;21.05;;;21.70;37.60;;;;;;6110099;28;83642;-65
2022/12/16 00:59:36;;;;;;;32.22;20.08;;;21.70;37.50;;;;;;6128191;28;84598;-66
2022/12/16 01:02:37;;;;;;;34.75;20.38;;;21.70;38.10;;;;;;6127467;28;84312;-66
2022/12/16 01:05:37;;;;;;;29.60;19.55;;;21.70;37.50;;;;;;6127423;28;83242;-66
2022/12/16 01:08:38;;;;;;;28.50;19.73;;;21.70;37.60;;;;;;6127475;28;83165;-66
2022/12/16 01:11:38;;;;;;;31.67;20.33;;;21.70;37.90;;;;;;6129028;28;83195;-65
2022/12/16 01:14:39;;;;;;;30.77;20.70;;;21.70;37.80;;;;;;6125018;28;84374;-60
2022/12/16 01:17:39;;;;;;;31.38;20.38;;;21.70;37.80;;;;;;6127121;28;83247;-60
2022/12/16 01:20:40;;;;;;;31.73;20.38;;;21.70;37.80;;;;;;6123694;28;83687;-62
2022/12/16 01:23:40;;;;;;;31.40;19.48;;;21.70;38.00;;;;;;6123386;28;83814;-61
2022/12/16 01:26:41;;;;;;;29.80;18.88;;;21.70;38.00;;;;;;6130051;28;83550;-61
2022/12/16 01:29:42;;;;;;;32.05;20.75;;;21.70;38.00;;;;;;6133021;28;83207;-61
2022/12/16 01:32:42;;;;;;;32.45;20.45;;;21.70;38.00;;;;;;6142191;28;83241;-63
2022/12/16 01:35:43;;;;;;;30.40;19.98;;;21.70;38.20;;;;;;6132459;28;86205;-63
2022/12/16 01:38:43;;;;;;;32.53;19.95;;;21.70;38.10;;;;;;6136000;28;83358;-64
2022/12/16 01:41:44;;;;;;;31.08;19.42;;;21.70;38.30;;;;;;6150423;28;82740;-63
2022/12/16 01:44:44;;;;;;;30.15;19.73;;;21.70;38.20;;;;;;6149108;28;83515;-63
2022/12/16 01:47:45;;;;;;;30.25;19.15;;;21.70;38.30;;;;;;6150656;28;83448;-63
2022/12/16 01:50:45;;;;;;;31.85;20.33;;;21.70;38.30;;;;;;6147090;28;83322;-63
2022/12/16 01:53:46;;;;;;;30.85;20.42;;;21.70;38.40;;;;;;6146744;28;83114;-63
2022/12/16 01:56:47;;;;;;;31.73;19.85;;;21.70;38.40;;;;;;6149522;28;84843;-65
2022/12/16 01:59:47;;;;;;;31.63;20.08;;;21.70;38.50;;;;;;6150201;28;83279;-65
2022/12/16 02:02:48;;;;;;;32.50;20.08;;;21.60;39.30;;;;;;6148963;28;83395;-65
2022/12/16 02:05:50;;;;;;;30.70;19.92;;;21.60;38.50;;;;;;6149952;28;83028;-65
2022/12/16 02:08:50;;;;;;;29.77;19.52;;;21.60;38.50;;;;;;6149889;28;84507;-64
2022/12/16 02:11:51;;;;;;;32.92;20.05;;;21.60;39.00;;;;;;6148241;28;83464;-63
2022/12/16 02:14:51;;;;;;;32.75;20.48;;;21.60;38.70;;;;;;6148422;28;83836;-63
2022/12/16 02:17:52;;;;;;;29.15;18.67;;;21.60;38.70;;;;;;6148749;28;83995;-62
2022/12/16 02:20:52;;;;;;;31.75;20.38;;;21.60;38.60;;;;;;6148195;28;83133;-62
2022/12/16 02:23:53;;;;;;;31.98;20.75;;;21.60;39.60;;;;;;6147248;28;84662;-63
2022/12/16 02:26:53;;;;;;;29.60;19.40;;;21.60;39.20;;;;;;6147590;28;84374;-63
2022/12/16 02:29:54;;;;;;;28.73;19.58;;;21.60;38.40;;;;;;6146900;28;83515;-64
2022/12/16 02:32:54;;;;;;;31.27;20.10;;;21.60;38.30;;;;;;6146941;28;83122;-64
2022/12/16 02:35:55;;;;;;;28.48;19.40;;;21.60;38.20;;;;;;6149120;28;83103;-66
2022/12/16 02:38:56;;;;;;;32.13;20.15;;;21.60;38.20;;;;;;6148700;28;83291;-65
2022/12/16 02:41:56;;;;;;;29.48;18.85;;;21.60;38.40;;;;;;6148092;28;84337;-64
2022/12/16 02:44:56;;;;;;;29.58;19.38;;;21.60;38.60;;;;;;6148277;28;82802;-63
2022/12/16 02:47:57;;;;;;;29.58;19.63;;;21.60;38.60;;;;;;6148137;28;83769;-64
2022/12/16 02:50:57;;;;;;;31.58;19.95;;;21.60;38.10;;;;;;6145099;28;86538;-64
2022/12/16 02:53:58;;;;;;;28.35;19.35;;;21.60;38.30;;;;;;6146489;28;83254;-64
2022/12/16 02:56:58;;;;;;;28.92;19.95;;;21.60;38.10;;;;;;6148035;28;84405;-63
2022/12/16 03:00:00;;;;;;;30.08;20.02;;;21.60;38.30;;;;;;6147415;28;83546;-63
2022/12/16 03:03:00;;;;;;;29.60;19.00;;;21.60;38.30;;;;;;6148103;28;83839;-61
2022/12/16 03:06:01;;;;;;;29.92;19.55;;;21.60;38.50;;;;;;6147466;28;83240;-61
2022/12/16 03:09:02;;;;;;;27.15;18.75;;;21.60;38.30;;;;;;6148531;28;83793;-61
2022/12/16 03:12:02;;;;;;;30.13;19.40;;;21.60;38.10;;;;;;6148728;28;83204;-60
2022/12/16 03:15:03;;;;;;;29.75;19.67;;;21.50;38.10;;;;;;6147956;28;83165;-60
2022/12/16 03:18:03;;;;;;;30.08;20.52;;;21.60;38.10;;;;;;6148133;28;83023;-60
2022/12/16 03:21:04;;;;;;;26.05;18.33;;;21.50;38.00;;;;;;6129112;28;83072;-61
2022/12/16 03:24:05;;;;;;;30.70;19.40;;;21.50;37.90;;;;;;6125267;28;83185;-60
2022/12/16 03:27:06;;;;;;;28.63;18.85;;;21.50;37.90;;;;;;6138422;28;83780;-60
2022/12/16 03:30:06;;;;;;;28.00;18.92;;;21.50;37.80;;;;;;6151646;28;83404;-60
2022/12/16 03:33:07;;;;;;;29.90;19.50;;;21.50;37.90;;;;;;6151710;28;83525;-60
2022/12/16 03:36:07;;;;;;;30.85;19.40;;;21.50;37.90;;;;;;6129399;28;84398;-60
2022/12/16 03:39:08;;;;;;;28.15;19.13;;;21.50;37.80;;;;;;6122203;28;85883;-61
2022/12/16 03:42:08;;;;;;;27.65;19.05;;;21.50;37.80;;;;;;6132033;28;86542;-66
2022/12/16 03:45:09;;;;;;;31.73;18.90;;;21.50;37.80;;;;;;6143163;28;82776;-65
2022/12/16 03:48:09;;;;;;;28.77;18.48;;;21.50;37.80;;;;;;6129684;28;83485;-65
2022/12/16 03:51:10;;;;;;;25.75;18.10;;;21.50;37.80;;;;;;6141204;28;83115;-65
2022/12/16 03:54:11;;;;;;;24.65;17.98;;;21.50;37.80;;;;;;6143541;28;82924;-64
2022/12/16 03:57:11;;;;;;;27.60;18.40;;;21.60;37.80;;;;;;6148003;28;84392;-64
2022/12/16 04:00:12;;;;;;;28.30;19.02;;;21.50;37.80;;;;;;6146384;28;82709;-63
2022/12/16 04:03:12;;;;;;;25.13;16.95;;;21.60;37.80;;;;;;6149310;28;83845;-63
2022/12/16 04:06:17;;;;;;;25.30;16.42;;;21.60;38.50;;;;;;6147947;28;83701;-63
2022/12/16 04:09:19;;;;;;;27.02;17.02;;;21.50;38.90;;;;;;6147342;28;84095;-62
2022/12/16 04:25:36;;;;;;;25.75;16.67;;;21.80;37.70;;;;;;6128401;28;83328;-66
2022/12/16 04:28:37;;;;;;;24.58;16.98;;;21.90;37.60;;;;;;6137858;28;83532;-66
2022/12/16 04:31:37;;;;;;;21.85;16.33;;;21.90;37.40;;;;;;6138041;28;85763;-65
2022/12/16 04:34:38;;;;;;;25.02;16.42;;;22.00;37.40;;;;;;6136703;28;83032;-60
